sensor_id;sensor_type;location;lat;lon;timestamp;P1;durP1;ratioP1;P2;durP2;ratioP2
9522;SDS011;63165;43.016;25.784;2023-11-19T00:01:01;3.55;;;2.30;;
9522;SDS011;63165;43.016;25.784;2023-11-19T00:03:30;7.32;;;2.60;;
9522;SDS011;63165;43.016;25.784;2023-11-19T00:06:00;4.15;;;2.00;;
9522;SDS011;63165;43.016;25.784;2023-11-19T00:08:29;4.68;;;2.25;;
9522;SDS011;63165;43.016;25.784;2023-11-19T00:10:57;5.65;;;2.50;;
9522;SDS011;63165;43.016;25.784;2023-11-19T00:13:24;7.30;;;2.47;;
9522;SDS011;63165;43.016;25.784;2023-11-19T00:15:53;4.53;;;2.33;;
9522;SDS011;63165;43.016;25.784;2023-11-19T00:18:22;7.03;;;2.42;;
9522;SDS011;63165;43.016;25.784;2023-11-19T00:20:49;6.07;;;2.25;;
9522;SDS011;63165;43.016;25.784;2023-11-19T00:23:16;5.60;;;2.08;;
9522;SDS011;63165;43.016;25.784;2023-11-19T00:25:44;4.85;;;2.42;;
9522;SDS011;63165;43.016;25.784;2023-11-19T00:28:13;4.20;;;2.20;;
9522;SDS011;63165;43.016;25.784;2023-11-19T00:30:40;4.93;;;2.20;;
9522;SDS011;63165;43.016;25.784;2023-11-19T00:33:09;6.68;;;2.40;;
9522;SDS011;63165;43.016;25.784;2023-11-19T00:35:36;7.97;;;2.40;;
9522;SDS011;63165;43.016;25.784;2023-11-19T00:38:04;5.30;;;2.40;;
9522;SDS011;63165;43.016;25.784;2023-11-19T00:40:31;4.28;;;2.10;;
9522;SDS011;63165;43.016;25.784;2023-11-19T00:42:58;6.30;;;2.40;;
9522;SDS011;63165;43.016;25.784;2023-11-19T00:45:26;4.13;;;2.03;;
9522;SDS011;63165;43.016;25.784;2023-11-19T00:47:53;8.05;;;2.80;;
9522;SDS011;63165;43.016;25.784;2023-11-19T00:50:22;4.78;;;2.63;;
9522;SDS011;63165;43.016;25.784;2023-11-19T00:52:49;6.68;;;2.80;;
9522;SDS011;63165;43.016;25.784;2023-11-19T00:55:17;9.60;;;2.60;;
9522;SDS011;63165;43.016;25.784;2023-11-19T00:57:44;6.80;;;2.80;;
9522;SDS011;63165;43.016;25.784;2023-11-19T01:00:12;8.90;;;3.05;;
9522;SDS011;63165;43.016;25.784;2023-11-19T01:02:44;4.47;;;2.25;;
9522;SDS011;63165;43.016;25.784;2023-11-19T01:05:11;7.07;;;2.35;;
9522;SDS011;63165;43.016;25.784;2023-11-19T01:07:41;6.38;;;2.42;;
9522;SDS011;63165;43.016;25.784;2023-11-19T01:10:09;7.45;;;2.50;;
9522;SDS011;63165;43.016;25.784;2023-11-19T01:12:37;4.93;;;2.38;;
9522;SDS011;63165;43.016;25.784;2023-11-19T01:15:05;4.90;;;2.08;;
9522;SDS011;63165;43.016;25.784;2023-11-19T01:17:32;6.70;;;2.50;;
9522;SDS011;63165;43.016;25.784;2023-11-19T01:20:00;5.10;;;2.30;;
9522;SDS011;63165;43.016;25.784;2023-11-19T01:22:31;5.80;;;2.70;;
9522;SDS011;63165;43.016;25.784;2023-11-19T01:24:59;4.60;;;2.17;;
9522;SDS011;63165;43.016;25.784;2023-11-19T01:27:27;5.45;;;2.33;;
9522;SDS011;63165;43.016;25.784;2023-11-19T01:29:54;5.80;;;2.65;;
9522;SDS011;63165;43.016;25.784;2023-11-19T01:32:22;4.10;;;2.25;;
9522;SDS011;63165;43.016;25.784;2023-11-19T01:34:49;4.75;;;2.38;;
9522;SDS011;63165;43.016;25.784;2023-11-19T01:37:16;6.25;;;2.60;;
9522;SDS011;63165;43.016;25.784;2023-11-19T01:39:44;4.18;;;2.42;;
9522;SDS011;63165;43.016;25.784;2023-11-19T01:42:12;5.93;;;2.95;;
9522;SDS011;63165;43.016;25.784;2023-11-19T01:44:40;6.10;;;2.50;;
9522;SDS011;63165;43.016;25.784;2023-11-19T01:47:08;4.47;;;2.30;;
9522;SDS011;63165;43.016;25.784;2023-11-19T01:49:36;6.72;;;2.80;;
9522;SDS011;63165;43.016;25.784;2023-11-19T01:52:03;4.43;;;2.15;;
9522;SDS011;63165;43.016;25.784;2023-11-19T01:54:31;5.22;;;2.47;;
9522;SDS011;63165;43.016;25.784;2023-11-19T01:56:58;5.47;;;2.45;;
9522;SDS011;63165;43.016;25.784;2023-11-19T01:59:27;4.68;;;2.40;;
9522;SDS011;63165;43.016;25.784;2023-11-19T02:01:55;3.40;;;1.77;;
9522;SDS011;63165;43.016;25.784;2023-11-19T02:04:23;4.25;;;2.20;;
9522;SDS011;63165;43.016;25.784;2023-11-19T02:06:50;5.22;;;2.35;;
9522;SDS011;63165;43.016;25.784;2023-11-19T02:09:20;5.40;;;2.58;;
9522;SDS011;63165;43.016;25.784;2023-11-19T02:11:48;7.53;;;2.47;;
9522;SDS011;63165;43.016;25.784;2023-11-19T02:14:16;5.53;;;2.28;;
9522;SDS011;63165;43.016;25.784;2023-11-19T02:16:46;4.90;;;2.10;;
9522;SDS011;63165;43.016;25.784;2023-11-19T02:19:14;5.57;;;2.00;;
9522;SDS011;63165;43.016;25.784;2023-11-19T02:21:41;4.45;;;2.10;;
9522;SDS011;63165;43.016;25.784;2023-11-19T02:24:09;4.20;;;2.25;;
9522;SDS011;63165;43.016;25.784;2023-11-19T02:26:43;7.93;;;2.60;;
9522;SDS011;63165;43.016;25.784;2023-11-19T02:29:18;4.40;;;2.28;;
9522;SDS011;63165;43.016;25.784;2023-11-19T02:31:45;4.97;;;2.42;;
9522;SDS011;63165;43.016;25.784;2023-11-19T02:34:13;4.38;;;2.30;;
9522;SDS011;63165;43.016;25.784;2023-11-19T02:36:41;5.03;;;2.45;;
9522;SDS011;63165;43.016;25.784;2023-11-19T02:39:08;4.07;;;2.35;;
9522;SDS011;63165;43.016;25.784;2023-11-19T02:41:38;5.30;;;2.60;;
9522;SDS011;63165;43.016;25.784;2023-11-19T02:44:05;5.07;;;2.33;;
9522;SDS011;63165;43.016;25.784;2023-11-19T02:46:34;4.55;;;2.15;;
9522;SDS011;63165;43.016;25.784;2023-11-19T02:49:03;5.63;;;2.33;;
9522;SDS011;63165;43.016;25.784;2023-11-19T02:51:32;5.50;;;2.20;;
9522;SDS011;63165;43.016;25.784;2023-11-19T02:54:00;5.25;;;2.65;;
9522;SDS011;63165;43.016;25.784;2023-11-19T02:56:29;5.00;;;2.13;;
9522;SDS011;63165;43.016;25.784;2023-11-19T02:59:00;5.68;;;2.35;;
9522;SDS011;63165;43.016;25.784;2023-11-19T03:01:35;5.28;;;2.30;;
9522;SDS011;63165;43.016;25.784;2023-11-19T03:04:02;4.35;;;2.00;;
9522;SDS011;63165;43.016;25.784;2023-11-19T03:06:30;6.57;;;2.20;;
9522;SDS011;63165;43.016;25.784;2023-11-19T03:09:04;4.90;;;2.22;;
9522;SDS011;63165;43.016;25.784;2023-11-19T03:11:35;4.43;;;2.40;;
9522;SDS011;63165;43.016;25.784;2023-11-19T03:14:03;3.75;;;2.22;;
9522;SDS011;63165;43.016;25.784;2023-11-19T03:16:31;5.00;;;2.25;;
9522;SDS011;63165;43.016;25.784;2023-11-19T03:19:01;4.35;;;2.30;;
9522;SDS011;63165;43.016;25.784;2023-11-19T03:21:29;5.93;;;2.25;;
9522;SDS011;63165;43.016;25.784;2023-11-19T03:23:57;6.47;;;2.55;;
9522;SDS011;63165;43.016;25.784;2023-11-19T03:26:25;5.68;;;2.60;;
9522;SDS011;63165;43.016;25.784;2023-11-19T03:28:53;7.57;;;2.47;;
9522;SDS011;63165;43.016;25.784;2023-11-19T03:31:23;6.63;;;2.35;;
9522;SDS011;63165;43.016;25.784;2023-11-19T03:33:51;8.05;;;2.72;;
9522;SDS011;63165;43.016;25.784;2023-11-19T03:36:23;3.80;;;2.00;;
9522;SDS011;63165;43.016;25.784;2023-11-19T03:38:50;6.22;;;2.60;;
9522;SDS011;63165;43.016;25.784;2023-11-19T03:41:18;4.55;;;2.50;;
9522;SDS011;63165;43.016;25.784;2023-11-19T03:43:48;5.00;;;2.40;;
9522;SDS011;63165;43.016;25.784;2023-11-19T03:46:17;5.55;;;2.20;;
9522;SDS011;63165;43.016;25.784;2023-11-19T03:48:46;8.25;;;2.55;;
9522;SDS011;63165;43.016;25.784;2023-11-19T03:51:13;4.53;;;2.10;;
9522;SDS011;63165;43.016;25.784;2023-11-19T03:53:43;5.90;;;2.80;;
9522;SDS011;63165;43.016;25.784;2023-11-19T03:56:10;5.28;;;2.58;;
9522;SDS011;63165;43.016;25.784;2023-11-19T03:58:38;6.93;;;2.60;;
9522;SDS011;63165;43.016;25.784;2023-11-19T04:01:06;6.43;;;2.50;;
9522;SDS011;63165;43.016;25.784;2023-11-19T04:03:38;9.27;;;2.78;;
9522;SDS011;63165;43.016;25.784;2023-11-19T04:06:05;4.82;;;2.45;;
9522;SDS011;63165;43.016;25.784;2023-11-19T04:08:33;12.15;;;3.20;;
9522;SDS011;63165;43.016;25.784;2023-11-19T04:11:03;8.07;;;3.33;;
9522;SDS011;63165;43.016;25.784;2023-11-19T04:13:31;5.72;;;2.53;;
9522;SDS011;63165;43.016;25.784;2023-11-19T04:15:58;7.38;;;2.92;;
9522;SDS011;63165;43.016;25.784;2023-11-19T04:18:26;7.68;;;2.55;;
9522;SDS011;63165;43.016;25.784;2023-11-19T04:20:54;9.27;;;2.80;;
9522;SDS011;63165;43.016;25.784;2023-11-19T04:23:21;5.28;;;2.55;;
9522;SDS011;63165;43.016;25.784;2023-11-19T04:25:50;5.65;;;2.85;;
9522;SDS011;63165;43.016;25.784;2023-11-19T04:28:26;7.78;;;2.88;;
9522;SDS011;63165;43.016;25.784;2023-11-19T04:30:54;6.70;;;2.20;;
9522;SDS011;63165;43.016;25.784;2023-11-19T04:33:21;7.18;;;2.58;;
9522;SDS011;63165;43.016;25.784;2023-11-19T04:35:50;8.02;;;3.25;;
9522;SDS011;63165;43.016;25.784;2023-11-19T04:38:17;7.13;;;3.20;;
9522;SDS011;63165;43.016;25.784;2023-11-19T04:40:49;12.32;;;4.43;;
9522;SDS011;63165;43.016;25.784;2023-11-19T04:43:39;7.57;;;3.33;;
9522;SDS011;63165;43.016;25.784;2023-11-19T04:46:13;7.07;;;3.15;;
9522;SDS011;63165;43.016;25.784;2023-11-19T04:48:41;9.32;;;3.40;;
9522;SDS011;63165;43.016;25.784;2023-11-19T04:51:09;6.35;;;2.72;;
9522;SDS011;63165;43.016;25.784;2023-11-19T04:53:36;7.47;;;3.00;;
9522;SDS011;63165;43.016;25.784;2023-11-19T04:56:07;9.20;;;3.30;;
9522;SDS011;63165;43.016;25.784;2023-11-19T04:58:40;8.43;;;3.00;;
9522;SDS011;63165;43.016;25.784;2023-11-19T05:01:12;6.95;;;2.95;;
9522;SDS011;63165;43.016;25.784;2023-11-19T05:03:42;9.55;;;2.85;;
9522;SDS011;63165;43.016;25.784;2023-11-19T05:06:09;8.27;;;3.10;;
9522;SDS011;63165;43.016;25.784;2023-11-19T05:08:37;5.40;;;2.60;;
9522;SDS011;63165;43.016;25.784;2023-11-19T05:11:04;7.72;;;2.90;;
9522;SDS011;63165;43.016;25.784;2023-11-19T05:13:32;8.35;;;3.10;;
9522;SDS011;63165;43.016;25.784;2023-11-19T05:16:01;8.20;;;3.22;;
9522;SDS011;63165;43.016;25.784;2023-11-19T05:18:28;7.78;;;3.10;;
9522;SDS011;63165;43.016;25.784;2023-11-19T05:20:56;6.15;;;2.90;;
9522;SDS011;63165;43.016;25.784;2023-11-19T05:23:23;13.63;;;3.28;;
9522;SDS011;63165;43.016;25.784;2023-11-19T05:25:50;6.07;;;3.40;;
9522;SDS011;63165;43.016;25.784;2023-11-19T05:28:18;9.02;;;3.15;;
9522;SDS011;63165;43.016;25.784;2023-11-19T05:30:45;7.72;;;3.10;;
9522;SDS011;63165;43.016;25.784;2023-11-19T05:33:14;5.40;;;2.70;;
9522;SDS011;63165;43.016;25.784;2023-11-19T05:35:41;6.75;;;3.00;;
9522;SDS011;63165;43.016;25.784;2023-11-19T05:38:09;10.75;;;3.25;;
9522;SDS011;63165;43.016;25.784;2023-11-19T05:40:36;6.55;;;2.90;;
9522;SDS011;63165;43.016;25.784;2023-11-19T05:43:04;5.65;;;2.92;;
9522;SDS011;63165;43.016;25.784;2023-11-19T05:45:35;8.18;;;3.60;;
9522;SDS011;63165;43.016;25.784;2023-11-19T05:48:03;8.02;;;3.63;;
9522;SDS011;63165;43.016;25.784;2023-11-19T05:50:32;7.50;;;3.22;;
9522;SDS011;63165;43.016;25.784;2023-11-19T05:52:59;6.93;;;3.38;;
9522;SDS011;63165;43.016;25.784;2023-11-19T05:55:26;9.05;;;3.20;;
9522;SDS011;63165;43.016;25.784;2023-11-19T05:57:54;11.63;;;3.92;;
9522;SDS011;63165;43.016;25.784;2023-11-19T06:00:22;8.15;;;3.28;;
9522;SDS011;63165;43.016;25.784;2023-11-19T06:02:49;7.53;;;3.30;;
9522;SDS011;63165;43.016;25.784;2023-11-19T06:05:17;7.45;;;3.35;;
9522;SDS011;63165;43.016;25.784;2023-11-19T06:07:46;7.30;;;3.30;;
9522;SDS011;63165;43.016;25.784;2023-11-19T06:10:15;7.38;;;3.15;;
9522;SDS011;63165;43.016;25.784;2023-11-19T06:12:43;8.63;;;3.50;;
9522;SDS011;63165;43.016;25.784;2023-11-19T06:15:12;9.25;;;3.30;;
9522;SDS011;63165;43.016;25.784;2023-11-19T06:17:40;6.95;;;3.10;;
9522;SDS011;63165;43.016;25.784;2023-11-19T06:20:08;6.57;;;3.13;;
9522;SDS011;63165;43.016;25.784;2023-11-19T06:22:37;6.53;;;3.05;;
9522;SDS011;63165;43.016;25.784;2023-11-19T06:25:06;6.93;;;3.50;;
9522;SDS011;63165;43.016;25.784;2023-11-19T06:27:34;6.55;;;3.38;;
9522;SDS011;63165;43.016;25.784;2023-11-19T06:30:03;21.30;;;4.35;;
9522;SDS011;63165;43.016;25.784;2023-11-19T06:32:32;9.63;;;4.10;;
9522;SDS011;63165;43.016;25.784;2023-11-19T06:35:00;7.78;;;3.70;;
9522;SDS011;63165;43.016;25.784;2023-11-19T06:37:29;10.52;;;3.30;;
9522;SDS011;63165;43.016;25.784;2023-11-19T06:39:57;7.05;;;3.45;;
9522;SDS011;63165;43.016;25.784;2023-11-19T06:42:26;12.65;;;4.50;;
9522;SDS011;63165;43.016;25.784;2023-11-19T06:44:53;16.23;;;4.93;;
9522;SDS011;63165;43.016;25.784;2023-11-19T06:47:22;19.52;;;5.47;;
9522;SDS011;63165;43.016;25.784;2023-11-19T06:49:51;14.35;;;5.53;;
9522;SDS011;63165;43.016;25.784;2023-11-19T06:52:18;22.98;;;6.88;;
9522;SDS011;63165;43.016;25.784;2023-11-19T06:54:46;14.57;;;5.63;;
9522;SDS011;63165;43.016;25.784;2023-11-19T06:57:15;11.18;;;4.10;;
9522;SDS011;63165;43.016;25.784;2023-11-19T06:59:47;11.88;;;4.32;;
9522;SDS011;63165;43.016;25.784;2023-11-19T07:02:16;14.07;;;4.65;;
9522;SDS011;63165;43.016;25.784;2023-11-19T07:04:47;12.05;;;4.40;;
9522;SDS011;63165;43.016;25.784;2023-11-19T07:07:22;10.70;;;4.22;;
9522;SDS011;63165;43.016;25.784;2023-11-19T07:09:49;9.30;;;4.60;;
9522;SDS011;63165;43.016;25.784;2023-11-19T07:12:17;8.75;;;4.30;;
9522;SDS011;63165;43.016;25.784;2023-11-19T07:14:49;15.65;;;4.82;;
9522;SDS011;63165;43.016;25.784;2023-11-19T07:17:17;15.63;;;4.80;;
9522;SDS011;63165;43.016;25.784;2023-11-19T07:19:54;10.13;;;4.22;;
9522;SDS011;63165;43.016;25.784;2023-11-19T07:22:24;11.75;;;4.57;;
9522;SDS011;63165;43.016;25.784;2023-11-19T07:24:52;13.32;;;5.35;;
9522;SDS011;63165;43.016;25.784;2023-11-19T07:27:19;11.27;;;4.30;;
9522;SDS011;63165;43.016;25.784;2023-11-19T07:29:51;12.13;;;5.38;;
9522;SDS011;63165;43.016;25.784;2023-11-19T07:32:21;17.70;;;7.53;;
9522;SDS011;63165;43.016;25.784;2023-11-19T07:34:48;14.75;;;6.40;;
9522;SDS011;63165;43.016;25.784;2023-11-19T07:37:16;11.77;;;5.22;;
9522;SDS011;63165;43.016;25.784;2023-11-19T07:39:43;10.63;;;4.72;;
9522;SDS011;63165;43.016;25.784;2023-11-19T07:42:10;22.15;;;8.90;;
9522;SDS011;63165;43.016;25.784;2023-11-19T07:44:43;13.88;;;4.90;;
9522;SDS011;63165;43.016;25.784;2023-11-19T07:47:13;12.80;;;5.75;;
9522;SDS011;63165;43.016;25.784;2023-11-19T07:49:41;13.30;;;5.20;;
9522;SDS011;63165;43.016;25.784;2023-11-19T07:52:12;10.32;;;4.63;;
9522;SDS011;63165;43.016;25.784;2023-11-19T07:54:43;11.30;;;4.70;;
9522;SDS011;63165;43.016;25.784;2023-11-19T07:57:50;13.80;;;4.88;;
9522;SDS011;63165;43.016;25.784;2023-11-19T08:03:40;23.23;;;8.35;;
9522;SDS011;63165;43.016;25.784;2023-11-19T08:08:41;12.77;;;5.07;;
9522;SDS011;63165;43.016;25.784;2023-11-19T08:13:53;16.60;;;5.90;;
9522;SDS011;63165;43.016;25.784;2023-11-19T08:16:31;15.18;;;5.40;;
9522;SDS011;63165;43.016;25.784;2023-11-19T08:19:00;12.55;;;4.97;;
9522;SDS011;63165;43.016;25.784;2023-11-19T08:21:28;13.68;;;5.10;;
9522;SDS011;63165;43.016;25.784;2023-11-19T08:23:56;53.08;;;15.15;;
9522;SDS011;63165;43.016;25.784;2023-11-19T08:26:24;11.82;;;5.00;;
9522;SDS011;63165;43.016;25.784;2023-11-19T08:28:52;10.85;;;4.97;;
9522;SDS011;63165;43.016;25.784;2023-11-19T08:31:20;13.13;;;5.00;;
9522;SDS011;63165;43.016;25.784;2023-11-19T08:33:47;13.23;;;5.10;;
9522;SDS011;63165;43.016;25.784;2023-11-19T08:36:16;68.20;;;17.95;;
9522;SDS011;63165;43.016;25.784;2023-11-19T08:38:44;66.25;;;16.75;;
9522;SDS011;63165;43.016;25.784;2023-11-19T08:41:11;53.83;;;15.52;;
9522;SDS011;63165;43.016;25.784;2023-11-19T08:43:39;36.35;;;10.65;;
9522;SDS011;63165;43.016;25.784;2023-11-19T08:46:09;126.93;;;32.20;;
9522;SDS011;63165;43.016;25.784;2023-11-19T08:48:37;19.92;;;7.22;;
9522;SDS011;63165;43.016;25.784;2023-11-19T08:51:05;52.95;;;15.43;;
9522;SDS011;63165;43.016;25.784;2023-11-19T08:53:34;50.95;;;14.23;;
9522;SDS011;63165;43.016;25.784;2023-11-19T08:56:01;70.13;;;19.42;;
9522;SDS011;63165;43.016;25.784;2023-11-19T08:58:29;18.70;;;7.55;;
9522;SDS011;63165;43.016;25.784;2023-11-19T09:00:56;25.98;;;8.52;;
9522;SDS011;63165;43.016;25.784;2023-11-19T09:03:24;19.60;;;7.65;;
9522;SDS011;63165;43.016;25.784;2023-11-19T09:05:52;23.27;;;8.25;;
9522;SDS011;63165;43.016;25.784;2023-11-19T09:08:24;8.38;;;4.50;;
9522;SDS011;63165;43.016;25.784;2023-11-19T09:10:53;15.82;;;6.07;;
9522;SDS011;63165;43.016;25.784;2023-11-19T09:17:07;12.50;;;5.03;;
9522;SDS011;63165;43.016;25.784;2023-11-19T09:43:48;7.93;;;3.60;;
9522;SDS011;63165;43.016;25.784;2023-11-19T09:47:07;10.38;;;4.22;;
9522;SDS011;63165;43.016;25.784;2023-11-19T09:53:46;7.13;;;3.20;;
9522;SDS011;63165;43.016;25.784;2023-11-19T09:56:26;6.57;;;3.50;;
9522;SDS011;63165;43.016;25.784;2023-11-19T10:02:13;6.60;;;2.90;;
9522;SDS011;63165;43.016;25.784;2023-11-19T10:04:42;9.45;;;3.95;;
9522;SDS011;63165;43.016;25.784;2023-11-19T10:07:12;11.02;;;3.83;;
9522;SDS011;63165;43.016;25.784;2023-11-19T10:09:39;8.98;;;3.78;;
9522;SDS011;63165;43.016;25.784;2023-11-19T10:12:08;8.32;;;3.88;;
9522;SDS011;63165;43.016;25.784;2023-11-19T10:14:35;9.52;;;4.78;;
9522;SDS011;63165;43.016;25.784;2023-11-19T10:17:07;20.25;;;6.43;;
9522;SDS011;63165;43.016;25.784;2023-11-19T10:19:34;50.85;;;15.38;;
9522;SDS011;63165;43.016;25.784;2023-11-19T10:22:03;9.38;;;3.67;;
9522;SDS011;63165;43.016;25.784;2023-11-19T10:24:31;12.50;;;4.22;;
9522;SDS011;63165;43.016;25.784;2023-11-19T10:26:59;12.57;;;5.05;;
9522;SDS011;63165;43.016;25.784;2023-11-19T10:29:30;26.70;;;8.15;;
9522;SDS011;63165;43.016;25.784;2023-11-19T10:32:01;27.85;;;8.10;;
9522;SDS011;63165;43.016;25.784;2023-11-19T11:02:50;73.25;;;21.58;;
9522;SDS011;63165;43.016;25.784;2023-11-19T11:05:23;41.92;;;15.55;;
9522;SDS011;63165;43.016;25.784;2023-11-19T11:07:55;10.63;;;4.82;;
9522;SDS011;63165;43.016;25.784;2023-11-19T11:10:26;24.02;;;7.82;;
9522;SDS011;63165;43.016;25.784;2023-11-19T11:13:01;53.60;;;15.43;;
9522;SDS011;63165;43.016;25.784;2023-11-19T11:15:31;46.30;;;14.65;;
9522;SDS011;63165;43.016;25.784;2023-11-19T11:18:06;25.30;;;8.05;;
9522;SDS011;63165;43.016;25.784;2023-11-19T11:20:35;41.97;;;12.93;;
9522;SDS011;63165;43.016;25.784;2023-11-19T11:23:19;45.45;;;14.38;;
9522;SDS011;63165;43.016;25.784;2023-11-19T11:26:04;24.60;;;8.70;;
9522;SDS011;63165;43.016;25.784;2023-11-19T11:28:48;11.10;;;4.82;;
9522;SDS011;63165;43.016;25.784;2023-11-19T11:31:30;22.05;;;7.95;;
9522;SDS011;63165;43.016;25.784;2023-11-19T11:34:08;22.20;;;9.20;;
9522;SDS011;63165;43.016;25.784;2023-11-19T11:36:49;11.80;;;4.60;;
9522;SDS011;63165;43.016;25.784;2023-11-19T11:39:27;14.13;;;6.38;;
9522;SDS011;63165;43.016;25.784;2023-11-19T12:05:08;7.68;;;3.85;;
9522;SDS011;63165;43.016;25.784;2023-11-19T12:08:22;11.13;;;3.70;;
9522;SDS011;63165;43.016;25.784;2023-11-19T12:18:40;8.20;;;3.35;;
9522;SDS011;63165;43.016;25.784;2023-11-19T12:24:44;6.28;;;3.10;;
9522;SDS011;63165;43.016;25.784;2023-11-19T12:31:15;6.45;;;3.13;;
9522;SDS011;63165;43.016;25.784;2023-11-19T12:54:13;8.60;;;4.28;;
9522;SDS011;63165;43.016;25.784;2023-11-19T12:56:51;5.35;;;2.90;;
9522;SDS011;63165;43.016;25.784;2023-11-19T12:59:19;6.28;;;2.75;;
9522;SDS011;63165;43.016;25.784;2023-11-19T13:01:56;6.20;;;2.92;;
9522;SDS011;63165;43.016;25.784;2023-11-19T13:04:28;4.65;;;2.75;;
9522;SDS011;63165;43.016;25.784;2023-11-19T13:06:59;6.53;;;2.80;;
9522;SDS011;63165;43.016;25.784;2023-11-19T13:12:11;7.80;;;3.08;;
9522;SDS011;63165;43.016;25.784;2023-11-19T13:14:42;16.52;;;5.95;;
9522;SDS011;63165;43.016;25.784;2023-11-19T13:17:16;12.65;;;4.78;;
9522;SDS011;63165;43.016;25.784;2023-11-19T13:19:46;18.52;;;7.80;;
9522;SDS011;63165;43.016;25.784;2023-11-19T13:22:16;11.40;;;4.90;;
9522;SDS011;63165;43.016;25.784;2023-11-19T13:24:48;19.33;;;7.55;;
9522;SDS011;63165;43.016;25.784;2023-11-19T13:27:18;10.20;;;4.70;;
9522;SDS011;63165;43.016;25.784;2023-11-19T13:29:51;10.05;;;3.80;;
9522;SDS011;63165;43.016;25.784;2023-11-19T13:32:21;7.97;;;4.40;;
9522;SDS011;63165;43.016;25.784;2023-11-19T13:34:49;7.85;;;4.13;;
9522;SDS011;63165;43.016;25.784;2023-11-19T13:37:21;8.45;;;3.30;;
9522;SDS011;63165;43.016;25.784;2023-11-19T13:39:51;7.35;;;3.60;;
9522;SDS011;63165;43.016;25.784;2023-11-19T13:42:19;7.18;;;3.53;;
9522;SDS011;63165;43.016;25.784;2023-11-19T13:44:46;7.32;;;3.50;;
9522;SDS011;63165;43.016;25.784;2023-11-19T13:47:13;7.38;;;3.60;;
9522;SDS011;63165;43.016;25.784;2023-11-19T13:49:41;6.57;;;3.22;;
9522;SDS011;63165;43.016;25.784;2023-11-19T13:52:08;9.38;;;3.22;;
9522;SDS011;63165;43.016;25.784;2023-11-19T13:54:36;6.78;;;2.97;;
9522;SDS011;63165;43.016;25.784;2023-11-19T13:57:06;7.10;;;3.10;;
9522;SDS011;63165;43.016;25.784;2023-11-19T13:59:33;10.60;;;3.60;;
9522;SDS011;63165;43.016;25.784;2023-11-19T14:02:05;6.67;;;3.40;;
9522;SDS011;63165;43.016;25.784;2023-11-19T14:04:33;5.28;;;2.95;;
9522;SDS011;63165;43.016;25.784;2023-11-19T14:07:02;7.63;;;3.00;;
9522;SDS011;63165;43.016;25.784;2023-11-19T14:09:30;8.25;;;3.55;;
9522;SDS011;63165;43.016;25.784;2023-11-19T14:11:57;5.95;;;3.10;;
9522;SDS011;63165;43.016;25.784;2023-11-19T14:14:26;10.75;;;6.18;;
9522;SDS011;63165;43.016;25.784;2023-11-19T14:16:56;9.38;;;4.50;;
9522;SDS011;63165;43.016;25.784;2023-11-19T14:19:23;23.50;;;8.05;;
9522;SDS011;63165;43.016;25.784;2023-11-19T14:21:52;48.13;;;16.40;;
9522;SDS011;63165;43.016;25.784;2023-11-19T14:24:19;12.43;;;5.50;;
9522;SDS011;63165;43.016;25.784;2023-11-19T14:26:47;17.02;;;7.30;;
9522;SDS011;63165;43.016;25.784;2023-11-19T14:29:17;19.90;;;7.05;;
9522;SDS011;63165;43.016;25.784;2023-11-19T14:31:48;9.75;;;4.18;;
9522;SDS011;63165;43.016;25.784;2023-11-19T14:34:15;11.63;;;5.47;;
9522;SDS011;63165;43.016;25.784;2023-11-19T14:36:43;22.30;;;8.52;;
9522;SDS011;63165;43.016;25.784;2023-11-19T14:39:10;14.88;;;6.57;;
9522;SDS011;63165;43.016;25.784;2023-11-19T14:41:37;17.80;;;6.47;;
9522;SDS011;63165;43.016;25.784;2023-11-19T14:44:07;9.25;;;3.78;;
9522;SDS011;63165;43.016;25.784;2023-11-19T14:46:35;14.00;;;6.25;;
9522;SDS011;63165;43.016;25.784;2023-11-19T14:49:04;17.58;;;6.30;;
9522;SDS011;63165;43.016;25.784;2023-11-19T14:51:35;16.08;;;5.82;;
9522;SDS011;63165;43.016;25.784;2023-11-19T14:54:03;16.17;;;6.68;;
9522;SDS011;63165;43.016;25.784;2023-11-19T14:56:30;14.50;;;6.25;;
9522;SDS011;63165;43.016;25.784;2023-11-19T15:02:40;19.67;;;7.40;;
9522;SDS011;63165;43.016;25.784;2023-11-19T15:05:40;19.58;;;7.88;;
9522;SDS011;63165;43.016;25.784;2023-11-19T15:08:08;22.55;;;7.00;;
9522;SDS011;63165;43.016;25.784;2023-11-19T15:10:35;18.08;;;7.35;;
9522;SDS011;63165;43.016;25.784;2023-11-19T15:13:03;12.90;;;6.30;;
9522;SDS011;63165;43.016;25.784;2023-11-19T15:15:30;15.30;;;6.35;;
9522;SDS011;63165;43.016;25.784;2023-11-19T15:17:57;19.73;;;7.95;;
9522;SDS011;63165;43.016;25.784;2023-11-19T15:20:25;20.42;;;8.20;;
9522;SDS011;63165;43.016;25.784;2023-11-19T15:26:21;29.55;;;9.90;;
9522;SDS011;63165;43.016;25.784;2023-11-19T15:28:52;34.42;;;11.30;;
9522;SDS011;63165;43.016;25.784;2023-11-19T15:34:34;24.70;;;8.52;;
9522;SDS011;63165;43.016;25.784;2023-11-19T15:40:27;52.67;;;16.35;;
9522;SDS011;63165;43.016;25.784;2023-11-19T15:42:56;52.70;;;16.73;;
9522;SDS011;63165;43.016;25.784;2023-11-19T15:45:33;54.22;;;16.95;;
9522;SDS011;63165;43.016;25.784;2023-11-19T15:48:04;50.58;;;15.48;;
9522;SDS011;63165;43.016;25.784;2023-11-19T15:50:42;54.20;;;17.25;;
9522;SDS011;63165;43.016;25.784;2023-11-19T15:57:02;57.95;;;17.77;;
9522;SDS011;63165;43.016;25.784;2023-11-19T16:27:26;49.80;;;16.40;;
9522;SDS011;63165;43.016;25.784;2023-11-19T16:43:47;28.10;;;10.73;;
9522;SDS011;63165;43.016;25.784;2023-11-19T16:46:16;31.38;;;10.07;;
9522;SDS011;63165;43.016;25.784;2023-11-19T16:49:02;26.63;;;10.20;;
9522;SDS011;63165;43.016;25.784;2023-11-19T16:51:44;39.85;;;12.40;;
9522;SDS011;63165;43.016;25.784;2023-11-19T16:54:13;35.80;;;11.05;;
9522;SDS011;63165;43.016;25.784;2023-11-19T16:56:45;58.33;;;19.83;;
9522;SDS011;63165;43.016;25.784;2023-11-19T16:59:15;57.67;;;18.85;;
9522;SDS011;63165;43.016;25.784;2023-11-19T17:01:43;48.83;;;17.05;;
9522;SDS011;63165;43.016;25.784;2023-11-19T17:04:13;48.22;;;17.05;;
9522;SDS011;63165;43.016;25.784;2023-11-19T17:06:42;48.47;;;16.20;;
9522;SDS011;63165;43.016;25.784;2023-11-19T17:09:11;49.38;;;16.70;;
9522;SDS011;63165;43.016;25.784;2023-11-19T17:11:49;48.80;;;15.45;;
9522;SDS011;63165;43.016;25.784;2023-11-19T17:14:21;57.50;;;17.10;;
9522;SDS011;63165;43.016;25.784;2023-11-19T17:16:48;61.17;;;19.40;;
9522;SDS011;63165;43.016;25.784;2023-11-19T17:19:17;49.75;;;17.45;;
9522;SDS011;63165;43.016;25.784;2023-11-19T17:21:45;64.28;;;17.90;;
9522;SDS011;63165;43.016;25.784;2023-11-19T17:24:13;51.08;;;16.08;;
9522;SDS011;63165;43.016;25.784;2023-11-19T17:26:40;69.15;;;18.52;;
9522;SDS011;63165;43.016;25.784;2023-11-19T17:29:09;49.58;;;17.08;;
9522;SDS011;63165;43.016;25.784;2023-11-19T17:31:36;44.33;;;15.27;;
9522;SDS011;63165;43.016;25.784;2023-11-19T17:34:04;47.63;;;15.23;;
9522;SDS011;63165;43.016;25.784;2023-11-19T17:36:32;41.83;;;15.73;;
9522;SDS011;63165;43.016;25.784;2023-11-19T17:39:00;30.33;;;11.73;;
9522;SDS011;63165;43.016;25.784;2023-11-19T17:41:29;29.77;;;12.00;;
9522;SDS011;63165;43.016;25.784;2023-11-19T17:43:56;36.53;;;12.73;;
9522;SDS011;63165;43.016;25.784;2023-11-19T17:46:24;37.70;;;13.35;;
9522;SDS011;63165;43.016;25.784;2023-11-19T17:48:51;52.13;;;16.20;;
9522;SDS011;63165;43.016;25.784;2023-11-19T17:51:19;63.10;;;22.13;;
9522;SDS011;63165;43.016;25.784;2023-11-19T17:53:48;89.63;;;26.90;;
9522;SDS011;63165;43.016;25.784;2023-11-19T17:56:15;78.63;;;23.60;;
9522;SDS011;63165;43.016;25.784;2023-11-19T17:58:43;63.63;;;19.83;;
9522;SDS011;63165;43.016;25.784;2023-11-19T18:01:10;82.05;;;24.38;;
9522;SDS011;63165;43.016;25.784;2023-11-19T18:03:40;158.48;;;43.38;;
9522;SDS011;63165;43.016;25.784;2023-11-19T18:06:14;98.75;;;28.60;;